sensor_id;sensor_type;location;lat;lon;timestamp;P1;durP1;ratioP1;P2;durP2;ratioP2
23418;SDS011;11882;42.522;27.458;2022-09-09T00:01:54;4.40;;;2.70;;
23418;SDS011;11882;42.522;27.458;2022-09-09T00:04:27;6.07;;;3.30;;
23418;SDS011;11882;42.522;27.458;2022-09-09T00:06:58;7.13;;;3.30;;
23418;SDS011;11882;42.522;27.458;2022-09-09T00:09:30;5.63;;;3.50;;
23418;SDS011;11882;42.522;27.458;2022-09-09T00:12:04;8.23;;;3.23;;
23418;SDS011;11882;42.522;27.458;2022-09-09T00:14:38;5.33;;;3.57;;
23418;SDS011;11882;42.522;27.458;2022-09-09T00:17:16;5.17;;;3.50;;
23418;SDS011;11882;42.522;27.458;2022-09-09T00:19:53;5.27;;;3.50;;
23418;SDS011;11882;42.522;27.458;2022-09-09T00:22:29;6.73;;;3.37;;
23418;SDS011;11882;42.522;27.458;2022-09-09T00:24:58;5.13;;;3.40;;
23418;SDS011;11882;42.522;27.458;2022-09-09T00:27:37;5.23;;;3.10;;
23418;SDS011;11882;42.522;27.458;2022-09-09T00:30:13;5.13;;;3.20;;
23418;SDS011;11882;42.522;27.458;2022-09-09T00:32:44;5.53;;;3.20;;
23418;SDS011;11882;42.522;27.458;2022-09-09T00:35:14;4.40;;;2.97;;
23418;SDS011;11882;42.522;27.458;2022-09-09T00:37:46;6.03;;;3.33;;
23418;SDS011;11882;42.522;27.458;2022-09-09T00:40:18;5.60;;;3.70;;
23418;SDS011;11882;42.522;27.458;2022-09-09T00:42:52;5.20;;;3.17;;
23418;SDS011;11882;42.522;27.458;2022-09-09T00:45:38;5.30;;;2.67;;
23418;SDS011;11882;42.522;27.458;2022-09-09T00:48:19;4.23;;;2.87;;
23418;SDS011;11882;42.522;27.458;2022-09-09T00:50:49;5.17;;;3.10;;
23418;SDS011;11882;42.522;27.458;2022-09-09T00:53:27;6.27;;;3.30;;
23418;SDS011;11882;42.522;27.458;2022-09-09T00:56:06;4.50;;;3.07;;
23418;SDS011;11882;42.522;27.458;2022-09-09T00:58:39;4.03;;;3.13;;
23418;SDS011;11882;42.522;27.458;2022-09-09T01:01:09;5.17;;;3.23;;
23418;SDS011;11882;42.522;27.458;2022-09-09T01:03:38;6.17;;;3.30;;
23418;SDS011;11882;42.522;27.458;2022-09-09T01:06:14;5.10;;;3.40;;
23418;SDS011;11882;42.522;27.458;2022-09-09T01:08:52;5.80;;;3.10;;
23418;SDS011;11882;42.522;27.458;2022-09-09T01:11:33;5.50;;;3.40;;
23418;SDS011;11882;42.522;27.458;2022-09-09T01:14:10;6.37;;;3.30;;
23418;SDS011;11882;42.522;27.458;2022-09-09T01:16:51;4.30;;;3.03;;
23418;SDS011;11882;42.522;27.458;2022-09-09T01:19:24;5.37;;;3.60;;
23418;SDS011;11882;42.522;27.458;2022-09-09T01:22:06;5.00;;;3.53;;
23418;SDS011;11882;42.522;27.458;2022-09-09T01:24:49;4.33;;;3.50;;
23418;SDS011;11882;42.522;27.458;2022-09-09T01:27:35;4.63;;;3.53;;
23418;SDS011;11882;42.522;27.458;2022-09-09T01:30:04;7.70;;;3.87;;
23418;SDS011;11882;42.522;27.458;2022-09-09T01:32:39;7.03;;;4.23;;
23418;SDS011;11882;42.522;27.458;2022-09-09T01:35:09;4.30;;;3.40;;
23418;SDS011;11882;42.522;27.458;2022-09-09T01:37:39;4.20;;;3.27;;
23418;SDS011;11882;42.522;27.458;2022-09-09T01:40:07;5.07;;;4.00;;
23418;SDS011;11882;42.522;27.458;2022-09-09T01:42:35;4.83;;;3.50;;
23418;SDS011;11882;42.522;27.458;2022-09-09T01:45:02;8.20;;;4.07;;
23418;SDS011;11882;42.522;27.458;2022-09-09T01:47:31;7.67;;;3.97;;
23418;SDS011;11882;42.522;27.458;2022-09-09T01:49:58;6.93;;;4.23;;
23418;SDS011;11882;42.522;27.458;2022-09-09T01:52:26;5.23;;;3.80;;
23418;SDS011;11882;42.522;27.458;2022-09-09T01:54:53;8.17;;;4.00;;
23418;SDS011;11882;42.522;27.458;2022-09-09T01:57:21;6.60;;;4.07;;
23418;SDS011;11882;42.522;27.458;2022-09-09T01:59:56;4.70;;;3.23;;
23418;SDS011;11882;42.522;27.458;2022-09-09T02:02:32;4.83;;;3.23;;
23418;SDS011;11882;42.522;27.458;2022-09-09T02:05:08;5.47;;;3.67;;
23418;SDS011;11882;42.522;27.458;2022-09-09T02:07:42;6.17;;;3.40;;
23418;SDS011;11882;42.522;27.458;2022-09-09T02:10:12;6.83;;;3.60;;
23418;SDS011;11882;42.522;27.458;2022-09-09T02:12:46;6.67;;;3.77;;
23418;SDS011;11882;42.522;27.458;2022-09-09T02:15:20;4.80;;;3.37;;
23418;SDS011;11882;42.522;27.458;2022-09-09T02:17:53;6.27;;;3.60;;
23418;SDS011;11882;42.522;27.458;2022-09-09T02:20:24;4.40;;;3.40;;
23418;SDS011;11882;42.522;27.458;2022-09-09T02:22:52;5.90;;;3.60;;
23418;SDS011;11882;42.522;27.458;2022-09-09T02:25:21;4.43;;;3.63;;
23418;SDS011;11882;42.522;27.458;2022-09-09T02:27:50;4.73;;;3.40;;
23418;SDS011;11882;42.522;27.458;2022-09-09T02:30:19;5.97;;;3.80;;
23418;SDS011;11882;42.522;27.458;2022-09-09T02:32:47;6.03;;;3.60;;
23418;SDS011;11882;42.522;27.458;2022-09-09T02:35:17;5.47;;;3.77;;
23418;SDS011;11882;42.522;27.458;2022-09-09T02:37:47;6.23;;;3.77;;
23418;SDS011;11882;42.522;27.458;2022-09-09T02:40:17;6.23;;;4.17;;
23418;SDS011;11882;42.522;27.458;2022-09-09T02:42:46;6.97;;;5.67;;
23418;SDS011;11882;42.522;27.458;2022-09-09T02:45:16;6.87;;;5.70;;
23418;SDS011;11882;42.522;27.458;2022-09-09T02:47:50;9.93;;;7.80;;
23418;SDS011;11882;42.522;27.458;2022-09-09T02:50:25;8.77;;;6.80;;
23418;SDS011;11882;42.522;27.458;2022-09-09T02:53:01;9.07;;;5.87;;
23418;SDS011;11882;42.522;27.458;2022-09-09T02:55:37;7.00;;;6.30;;
23418;SDS011;11882;42.522;27.458;2022-09-09T02:58:08;7.27;;;5.03;;
23418;SDS011;11882;42.522;27.458;2022-09-09T03:00:39;6.80;;;5.10;;
23418;SDS011;11882;42.522;27.458;2022-09-09T03:03:07;7.37;;;4.93;;
23418;SDS011;11882;42.522;27.458;2022-09-09T03:05:35;5.63;;;4.33;;
23418;SDS011;11882;42.522;27.458;2022-09-09T03:08:02;8.00;;;4.30;;
23418;SDS011;11882;42.522;27.458;2022-09-09T03:10:30;6.23;;;3.77;;
23418;SDS011;11882;42.522;27.458;2022-09-09T03:12:57;4.80;;;3.60;;
23418;SDS011;11882;42.522;27.458;2022-09-09T03:15:24;8.93;;;4.00;;
23418;SDS011;11882;42.522;27.458;2022-09-09T03:17:55;7.97;;;4.43;;
23418;SDS011;11882;42.522;27.458;2022-09-09T03:20:23;7.23;;;4.07;;
23418;SDS011;11882;42.522;27.458;2022-09-09T03:22:51;7.47;;;3.80;;
23418;SDS011;11882;42.522;27.458;2022-09-09T03:25:18;5.10;;;3.80;;
23418;SDS011;11882;42.522;27.458;2022-09-09T03:27:45;4.97;;;3.57;;
23418;SDS011;11882;42.522;27.458;2022-09-09T03:30:12;5.67;;;3.40;;
23418;SDS011;11882;42.522;27.458;2022-09-09T03:32:39;5.17;;;3.37;;
23418;SDS011;11882;42.522;27.458;2022-09-09T03:35:07;6.07;;;3.63;;
23418;SDS011;11882;42.522;27.458;2022-09-09T03:37:36;5.30;;;3.50;;
23418;SDS011;11882;42.522;27.458;2022-09-09T03:40:04;4.63;;;3.07;;
23418;SDS011;11882;42.522;27.458;2022-09-09T03:42:32;5.77;;;2.90;;
23418;SDS011;11882;42.522;27.458;2022-09-09T03:44:59;6.97;;;3.23;;
23418;SDS011;11882;42.522;27.458;2022-09-09T03:47:25;7.10;;;3.30;;
23418;SDS011;11882;42.522;27.458;2022-09-09T03:49:52;5.23;;;3.30;;
23418;SDS011;11882;42.522;27.458;2022-09-09T03:52:21;6.30;;;3.80;;
23418;SDS011;11882;42.522;27.458;2022-09-09T03:54:50;6.37;;;3.50;;
23418;SDS011;11882;42.522;27.458;2022-09-09T03:57:18;6.03;;;3.57;;
23418;SDS011;11882;42.522;27.458;2022-09-09T03:59:45;5.23;;;3.60;;
23418;SDS011;11882;42.522;27.458;2022-09-09T04:02:12;6.47;;;3.40;;
23418;SDS011;11882;42.522;27.458;2022-09-09T04:04:39;4.30;;;3.43;;
23418;SDS011;11882;42.522;27.458;2022-09-09T04:07:05;6.20;;;3.93;;
23418;SDS011;11882;42.522;27.458;2022-09-09T04:09:34;8.47;;;4.03;;
23418;SDS011;11882;42.522;27.458;2022-09-09T04:12:01;9.07;;;4.07;;
23418;SDS011;11882;42.522;27.458;2022-09-09T04:14:28;9.47;;;3.97;;
23418;SDS011;11882;42.522;27.458;2022-09-09T04:16:55;8.70;;;4.07;;
23418;SDS011;11882;42.522;27.458;2022-09-09T04:19:22;6.50;;;4.30;;
23418;SDS011;11882;42.522;27.458;2022-09-09T04:21:49;6.27;;;3.80;;
23418;SDS011;11882;42.522;27.458;2022-09-09T04:24:16;5.10;;;3.90;;
23418;SDS011;11882;42.522;27.458;2022-09-09T04:26:45;7.73;;;4.57;;
23418;SDS011;11882;42.522;27.458;2022-09-09T04:29:12;8.03;;;4.33;;
23418;SDS011;11882;42.522;27.458;2022-09-09T04:31:39;5.30;;;3.80;;
23418;SDS011;11882;42.522;27.458;2022-09-09T04:34:07;6.13;;;3.63;;
23418;SDS011;11882;42.522;27.458;2022-09-09T04:36:35;4.60;;;3.67;;
23418;SDS011;11882;42.522;27.458;2022-09-09T04:39:02;5.27;;;3.87;;
23418;SDS011;11882;42.522;27.458;2022-09-09T04:41:29;7.03;;;3.50;;
23418;SDS011;11882;42.522;27.458;2022-09-09T04:43:58;7.27;;;3.70;;
23418;SDS011;11882;42.522;27.458;2022-09-09T04:46:26;8.47;;;3.77;;
23418;SDS011;11882;42.522;27.458;2022-09-09T04:48:53;5.63;;;3.30;;
23418;SDS011;11882;42.522;27.458;2022-09-09T04:51:20;10.10;;;4.07;;
23418;SDS011;11882;42.522;27.458;2022-09-09T04:53:47;6.50;;;3.43;;
23418;SDS011;11882;42.522;27.458;2022-09-09T04:56:16;6.93;;;3.47;;
23418;SDS011;11882;42.522;27.458;2022-09-09T04:58:44;9.67;;;4.00;;
23418;SDS011;11882;42.522;27.458;2022-09-09T05:01:13;4.03;;;2.87;;
23418;SDS011;11882;42.522;27.458;2022-09-09T05:03:43;4.53;;;3.10;;
23418;SDS011;11882;42.522;27.458;2022-09-09T05:06:12;4.93;;;3.17;;
23418;SDS011;11882;42.522;27.458;2022-09-09T05:08:41;10.47;;;3.90;;
23418;SDS011;11882;42.522;27.458;2022-09-09T05:11:15;4.70;;;3.43;;
23418;SDS011;11882;42.522;27.458;2022-09-09T05:13:43;5.13;;;3.40;;
23418;SDS011;11882;42.522;27.458;2022-09-09T05:16:11;7.30;;;3.30;;
23418;SDS011;11882;42.522;27.458;2022-09-09T05:18:40;7.60;;;3.73;;
23418;SDS011;11882;42.522;27.458;2022-09-09T05:21:08;6.33;;;3.60;;
23418;SDS011;11882;42.522;27.458;2022-09-09T05:23:35;7.30;;;4.00;;
23418;SDS011;11882;42.522;27.458;2022-09-09T05:26:03;5.40;;;3.20;;
23418;SDS011;11882;42.522;27.458;2022-09-09T05:28:30;9.13;;;4.13;;
23418;SDS011;11882;42.522;27.458;2022-09-09T05:31:00;6.53;;;3.00;;
23418;SDS011;11882;42.522;27.458;2022-09-09T05:33:31;7.40;;;4.10;;
23418;SDS011;11882;42.522;27.458;2022-09-09T05:35:59;7.27;;;4.23;;
23418;SDS011;11882;42.522;27.458;2022-09-09T05:38:27;6.67;;;3.70;;
23418;SDS011;11882;42.522;27.458;2022-09-09T05:40:55;5.57;;;3.50;;
23418;SDS011;11882;42.522;27.458;2022-09-09T05:43:23;6.30;;;3.57;;
23418;SDS011;11882;42.522;27.458;2022-09-09T05:45:58;11.20;;;4.97;;
23418;SDS011;11882;42.522;27.458;2022-09-09T05:48:27;11.87;;;8.70;;
23418;SDS011;11882;42.522;27.458;2022-09-09T05:50:57;12.50;;;8.20;;
23418;SDS011;11882;42.522;27.458;2022-09-09T05:53:24;6.17;;;4.63;;
23418;SDS011;11882;42.522;27.458;2022-09-09T05:55:58;13.20;;;4.50;;
23418;SDS011;11882;42.522;27.458;2022-09-09T05:58:26;8.17;;;3.63;;
23418;SDS011;11882;42.522;27.458;2022-09-09T06:00:59;5.23;;;3.10;;
23418;SDS011;11882;42.522;27.458;2022-09-09T06:03:27;7.00;;;2.70;;
23418;SDS011;11882;42.522;27.458;2022-09-09T06:05:59;5.83;;;3.07;;
23418;SDS011;11882;42.522;27.458;2022-09-09T06:08:26;7.70;;;2.97;;
23418;SDS011;11882;42.522;27.458;2022-09-09T06:10:53;5.57;;;2.60;;
23418;SDS011;11882;42.522;27.458;2022-09-09T06:13:28;6.33;;;2.80;;
23418;SDS011;11882;42.522;27.458;2022-09-09T06:15:56;7.97;;;3.43;;
23418;SDS011;11882;42.522;27.458;2022-09-09T06:18:23;6.73;;;2.80;;
23418;SDS011;11882;42.522;27.458;2022-09-09T06:20:54;4.63;;;3.20;;
23418;SDS011;11882;42.522;27.458;2022-09-09T06:23:24;8.10;;;3.50;;
23418;SDS011;11882;42.522;27.458;2022-09-09T06:25:51;6.53;;;3.17;;
23418;SDS011;11882;42.522;27.458;2022-09-09T06:28:26;4.27;;;3.10;;
23418;SDS011;11882;42.522;27.458;2022-09-09T06:30:56;7.70;;;3.60;;
23418;SDS011;11882;42.522;27.458;2022-09-09T06:33:24;8.60;;;3.10;;
23418;SDS011;11882;42.522;27.458;2022-09-09T06:35:51;6.83;;;2.60;;
23418;SDS011;11882;42.522;27.458;2022-09-09T06:38:19;7.17;;;2.60;;
23418;SDS011;11882;42.522;27.458;2022-09-09T06:40:51;14.37;;;3.63;;
23418;SDS011;11882;42.522;27.458;2022-09-09T06:43:20;4.97;;;2.97;;
23418;SDS011;11882;42.522;27.458;2022-09-09T06:45:52;6.77;;;3.50;;
23418;SDS011;11882;42.522;27.458;2022-09-09T06:48:20;4.90;;;3.40;;
23418;SDS011;11882;42.522;27.458;2022-09-09T06:50:47;6.37;;;3.07;;
23418;SDS011;11882;42.522;27.458;2022-09-09T06:53:15;10.07;;;3.30;;
23418;SDS011;11882;42.522;27.458;2022-09-09T06:55:44;10.90;;;3.10;;
23418;SDS011;11882;42.522;27.458;2022-09-09T06:58:13;5.83;;;2.90;;
23418;SDS011;11882;42.522;27.458;2022-09-09T07:00:40;4.43;;;2.83;;
23418;SDS011;11882;42.522;27.458;2022-09-09T07:03:07;5.00;;;2.93;;
23418;SDS011;11882;42.522;27.458;2022-09-09T07:05:36;5.33;;;2.20;;
23418;SDS011;11882;42.522;27.458;2022-09-09T07:08:03;6.30;;;2.50;;
23418;SDS011;11882;42.522;27.458;2022-09-09T07:10:31;5.63;;;2.30;;
23418;SDS011;11882;42.522;27.458;2022-09-09T07:12:59;5.57;;;3.00;;
23418;SDS011;11882;42.522;27.458;2022-09-09T07:15:28;4.57;;;2.70;;
23418;SDS011;11882;42.522;27.458;2022-09-09T07:17:55;4.30;;;2.47;;
23418;SDS011;11882;42.522;27.458;2022-09-09T07:20:27;4.80;;;2.47;;
23418;SDS011;11882;42.522;27.458;2022-09-09T07:22:54;5.20;;;2.60;;
23418;SDS011;11882;42.522;27.458;2022-09-09T07:25:22;4.27;;;2.30;;
23418;SDS011;11882;42.522;27.458;2022-09-09T07:27:49;3.93;;;2.50;;
23418;SDS011;11882;42.522;27.458;2022-09-09T07:30:16;3.97;;;2.33;;
23418;SDS011;11882;42.522;27.458;2022-09-09T07:32:46;5.67;;;2.47;;
23418;SDS011;11882;42.522;27.458;2022-09-09T07:35:13;4.00;;;2.40;;
23418;SDS011;11882;42.522;27.458;2022-09-09T07:37:39;4.70;;;2.50;;
23418;SDS011;11882;42.522;27.458;2022-09-09T07:40:07;3.87;;;2.30;;
23418;SDS011;11882;42.522;27.458;2022-09-09T07:42:35;6.20;;;2.23;;
23418;SDS011;11882;42.522;27.458;2022-09-09T07:45:02;6.83;;;3.40;;
23418;SDS011;11882;42.522;27.458;2022-09-09T07:47:30;6.63;;;2.80;;
23418;SDS011;11882;42.522;27.458;2022-09-09T07:49:59;5.80;;;3.00;;
23418;SDS011;11882;42.522;27.458;2022-09-09T07:52:26;6.87;;;2.77;;
23418;SDS011;11882;42.522;27.458;2022-09-09T07:54:53;4.73;;;2.43;;
23418;SDS011;11882;42.522;27.458;2022-09-09T07:57:21;4.70;;;2.97;;
23418;SDS011;11882;42.522;27.458;2022-09-09T07:59:48;5.77;;;2.17;;
23418;SDS011;11882;42.522;27.458;2022-09-09T08:02:15;4.27;;;2.13;;
23418;SDS011;11882;42.522;27.458;2022-09-09T08:04:42;8.73;;;2.40;;
23418;SDS011;11882;42.522;27.458;2022-09-09T08:07:11;5.67;;;2.50;;
23418;SDS011;11882;42.522;27.458;2022-09-09T08:09:38;5.23;;;2.17;;
23418;SDS011;11882;42.522;27.458;2022-09-09T08:12:05;1.87;;;1.40;;
23418;SDS011;11882;42.522;27.458;2022-09-09T08:14:33;4.97;;;1.50;;
23418;SDS011;11882;42.522;27.458;2022-09-09T08:17:00;3.63;;;1.57;;
23418;SDS011;11882;42.522;27.458;2022-09-09T08:19:27;3.73;;;2.00;;
23418;SDS011;11882;42.522;27.458;2022-09-09T08:21:55;2.93;;;1.93;;
23418;SDS011;11882;42.522;27.458;2022-09-09T08:24:24;5.13;;;2.67;;
23418;SDS011;11882;42.522;27.458;2022-09-09T08:26:51;6.30;;;2.07;;
23418;SDS011;11882;42.522;27.458;2022-09-09T08:29:18;4.30;;;1.87;;
23418;SDS011;11882;42.522;27.458;2022-09-09T08:31:46;5.23;;;2.00;;
23418;SDS011;11882;42.522;27.458;2022-09-09T08:34:14;3.57;;;2.27;;
23418;SDS011;11882;42.522;27.458;2022-09-09T08:36:43;4.07;;;2.13;;
23418;SDS011;11882;42.522;27.458;2022-09-09T08:39:11;4.13;;;2.30;;
23418;SDS011;11882;42.522;27.458;2022-09-09T08:41:43;5.13;;;2.70;;
23418;SDS011;11882;42.522;27.458;2022-09-09T08:44:28;4.90;;;2.23;;
23418;SDS011;11882;42.522;27.458;2022-09-09T08:47:05;6.00;;;2.50;;
23418;SDS011;11882;42.522;27.458;2022-09-09T08:49:46;3.73;;;2.57;;
23418;SDS011;11882;42.522;27.458;2022-09-09T08:52:28;8.37;;;2.67;;
23418;SDS011;11882;42.522;27.458;2022-09-09T08:55:01;3.63;;;2.30;;
23418;SDS011;11882;42.522;27.458;2022-09-09T08:57:39;3.50;;;1.90;;
23418;SDS011;11882;42.522;27.458;2022-09-09T09:00:08;3.83;;;1.97;;
23418;SDS011;11882;42.522;27.458;2022-09-09T09:02:38;4.13;;;2.00;;
23418;SDS011;11882;42.522;27.458;2022-09-09T09:05:15;3.77;;;1.87;;
23418;SDS011;11882;42.522;27.458;2022-09-09T09:07:55;3.37;;;2.00;;
23418;SDS011;11882;42.522;27.458;2022-09-09T09:10:32;5.47;;;1.80;;
23418;SDS011;11882;42.522;27.458;2022-09-09T09:15:41;4.30;;;1.87;;
23418;SDS011;11882;42.522;27.458;2022-09-09T09:18:10;2.37;;;1.50;;
23418;SDS011;11882;42.522;27.458;2022-09-09T09:20:40;5.00;;;1.90;;
23418;SDS011;11882;42.522;27.458;2022-09-09T09:23:15;3.53;;;1.80;;
23418;SDS011;11882;42.522;27.458;2022-09-09T09:25:47;4.83;;;2.00;;
23418;SDS011;11882;42.522;27.458;2022-09-09T09:28:17;3.20;;;1.77;;
23418;SDS011;11882;42.522;27.458;2022-09-09T09:30:49;4.50;;;1.63;;
23418;SDS011;11882;42.522;27.458;2022-09-09T09:33:20;2.53;;;1.30;;
23418;SDS011;11882;42.522;27.458;2022-09-09T09:35:52;3.07;;;1.60;;
23418;SDS011;11882;42.522;27.458;2022-09-09T09:38:20;4.93;;;1.80;;
23418;SDS011;11882;42.522;27.458;2022-09-09T09:40:50;4.87;;;1.80;;
23418;SDS011;11882;42.522;27.458;2022-09-09T09:43:21;4.40;;;1.70;;
23418;SDS011;11882;42.522;27.458;2022-09-09T09:45:51;3.60;;;1.80;;
23418;SDS011;11882;42.522;27.458;2022-09-09T09:48:18;2.60;;;1.60;;
23418;SDS011;11882;42.522;27.458;2022-09-09T09:50:48;3.33;;;1.50;;
23418;SDS011;11882;42.522;27.458;2022-09-09T09:53:20;4.67;;;2.20;;
23418;SDS011;11882;42.522;27.458;2022-09-09T09:55:52;3.53;;;2.10;;
23418;SDS011;11882;42.522;27.458;2022-09-09T09:58:25;2.33;;;1.60;;
23418;SDS011;11882;42.522;27.458;2022-09-09T10:00:57;2.97;;;1.60;;
23418;SDS011;11882;42.522;27.458;2022-09-09T10:03:25;2.70;;;1.60;;
23418;SDS011;11882;42.522;27.458;2022-09-09T10:05:53;2.17;;;1.43;;
23418;SDS011;11882;42.522;27.458;2022-09-09T10:08:21;3.70;;;1.63;;
23418;SDS011;11882;42.522;27.458;2022-09-09T10:10:52;4.13;;;1.37;;
23418;SDS011;11882;42.522;27.458;2022-09-09T10:13:31;5.50;;;1.53;;
23418;SDS011;11882;42.522;27.458;2022-09-09T10:16:09;4.80;;;1.87;;
23418;SDS011;11882;42.522;27.458;2022-09-09T10:18:53;4.40;;;1.43;;
23418;SDS011;11882;42.522;27.458;2022-09-09T10:21:29;3.00;;;1.30;;
23418;SDS011;11882;42.522;27.458;2022-09-09T10:24:16;3.83;;;1.20;;
23418;SDS011;11882;42.522;27.458;2022-09-09T10:27:05;2.17;;;1.30;;
23418;SDS011;11882;42.522;27.458;2022-09-09T10:29:52;2.80;;;1.50;;
23418;SDS011;11882;42.522;27.458;2022-09-09T10:32:36;2.70;;;1.30;;
23418;SDS011;11882;42.522;27.458;2022-09-09T10:35:10;2.47;;;1.40;;
23418;SDS011;11882;42.522;27.458;2022-09-09T10:40:46;2.27;;;1.40;;
23418;SDS011;11882;42.522;27.458;2022-09-09T10:43:31;3.97;;;1.50;;
23418;SDS011;11882;42.522;27.458;2022-09-09T10:46:12;3.00;;;1.50;;
23418;SDS011;11882;42.522;27.458;2022-09-09T10:48:52;2.93;;;1.57;;
23418;SDS011;11882;42.522;27.458;2022-09-09T10:51:33;2.77;;;1.20;;
23418;SDS011;11882;42.522;27.458;2022-09-09T10:54:13;3.10;;;1.50;;
23418;SDS011;11882;42.522;27.458;2022-09-09T10:57:00;3.47;;;1.37;;
23418;SDS011;11882;42.522;27.458;2022-09-09T10:59:34;2.70;;;1.30;;
23418;SDS011;11882;42.522;27.458;2022-09-09T11:02:11;4.73;;;1.50;;
23418;SDS011;11882;42.522;27.458;2022-09-09T11:04:45;2.33;;;1.20;;
23418;SDS011;11882;42.522;27.458;2022-09-09T11:07:24;5.43;;;1.60;;
23418;SDS011;11882;42.522;27.458;2022-09-09T11:09:58;4.43;;;1.70;;
23418;SDS011;11882;42.522;27.458;2022-09-09T11:12:28;2.63;;;1.40;;
23418;SDS011;11882;42.522;27.458;2022-09-09T11:14:59;2.87;;;1.50;;
23418;SDS011;11882;42.522;27.458;2022-09-09T11:17:35;3.07;;;1.23;;
23418;SDS011;11882;42.522;27.458;2022-09-09T11:20:11;2.47;;;1.50;;
23418;SDS011;11882;42.522;27.458;2022-09-09T11:22:40;2.00;;;1.20;;
23418;SDS011;11882;42.522;27.458;2022-09-09T11:25:15;3.33;;;1.23;;
23418;SDS011;11882;42.522;27.458;2022-09-09T11:27:48;5.80;;;1.60;;
23418;SDS011;11882;42.522;27.458;2022-09-09T11:30:26;3.73;;;1.63;;
23418;SDS011;11882;42.522;27.458;2022-09-09T11:33:09;2.60;;;1.47;;
23418;SDS011;11882;42.522;27.458;2022-09-09T11:35:56;6.07;;;1.60;;
23418;SDS011;11882;42.522;27.458;2022-09-09T11:38:32;2.07;;;1.50;;
23418;SDS011;11882;42.522;27.458;2022-09-09T11:41:11;3.20;;;1.40;;
23418;SDS011;11882;42.522;27.458;2022-09-09T11:43:39;4.07;;;1.90;;
23418;SDS011;11882;42.522;27.458;2022-09-09T11:46:08;5.00;;;1.90;;
23418;SDS011;11882;42.522;27.458;2022-09-09T11:48:38;5.13;;;1.40;;
23418;SDS011;11882;42.522;27.458;2022-09-09T11:51:09;6.50;;;1.90;;
23418;SDS011;11882;42.522;27.458;2022-09-09T11:53:47;3.23;;;1.50;;
23418;SDS011;11882;42.522;27.458;2022-09-09T11:56:24;2.27;;;1.47;;
23418;SDS011;11882;42.522;27.458;2022-09-09T11:58:57;4.60;;;1.50;;
23418;SDS011;11882;42.522;27.458;2022-09-09T12:01:36;5.87;;;1.60;;
23418;SDS011;11882;42.522;27.458;2022-09-09T12:04:20;2.93;;;1.53;;
23418;SDS011;11882;42.522;27.458;2022-09-09T12:07:03;3.07;;;1.63;;
23418;SDS011;11882;42.522;27.458;2022-09-09T12:09:42;3.97;;;2.07;;
23418;SDS011;11882;42.522;27.458;2022-09-09T12:15:00;3.77;;;1.83;;
23418;SDS011;11882;42.522;27.458;2022-09-09T12:17:30;3.93;;;1.80;;
23418;SDS011;11882;42.522;27.458;2022-09-09T12:20:08;4.60;;;2.00;;
23418;SDS011;11882;42.522;27.458;2022-09-09T12:25:36;4.07;;;1.87;;
23418;SDS011;11882;42.522;27.458;2022-09-09T12:28:16;4.23;;;2.03;;
23418;SDS011;11882;42.522;27.458;2022-09-09T12:30:48;3.17;;;2.10;;
23418;SDS011;11882;42.522;27.458;2022-09-09T12:33:21;3.97;;;2.20;;
23418;SDS011;11882;42.522;27.458;2022-09-09T12:35:51;3.97;;;2.13;;
23418;SDS011;11882;42.522;27.458;2022-09-09T12:38:22;2.90;;;1.97;;
23418;SDS011;11882;42.522;27.458;2022-09-09T12:40:57;3.93;;;2.00;;
23418;SDS011;11882;42.522;27.458;2022-09-09T12:43:26;5.87;;;2.30;;
23418;SDS011;11882;42.522;27.458;2022-09-09T12:45:55;3.83;;;2.03;;
23418;SDS011;11882;42.522;27.458;2022-09-09T12:48:28;2.63;;;1.87;;
23418;SDS011;11882;42.522;27.458;2022-09-09T12:51:16;6.23;;;2.20;;
23418;SDS011;11882;42.522;27.458;2022-09-09T12:53:46;2.97;;;1.90;;
23418;SDS011;11882;42.522;27.458;2022-09-09T12:56:18;5.43;;;2.40;;
23418;SDS011;11882;42.522;27.458;2022-09-09T12:58:46;4.70;;;2.50;;
23418;SDS011;11882;42.522;27.458;2022-09-09T13:01:18;4.07;;;2.17;;
23418;SDS011;11882;42.522;27.458;2022-09-09T13:03:48;4.20;;;2.13;;
23418;SDS011;11882;42.522;27.458;2022-09-09T13:06:19;4.10;;;2.63;;
23418;SDS011;11882;42.522;27.458;2022-09-09T13:08:49;3.97;;;2.20;;
23418;SDS011;11882;42.522;27.458;2022-09-09T13:11:16;8.53;;;5.33;;
23418;SDS011;11882;42.522;27.458;2022-09-09T13:13:50;6.30;;;3.10;;
23418;SDS011;11882;42.522;27.458;2022-09-09T13:16:19;6.03;;;2.10;;
23418;SDS011;11882;42.522;27.458;2022-09-09T13:18:49;3.90;;;2.23;;
23418;SDS011;11882;42.522;27.458;2022-09-09T13:21:17;4.43;;;2.37;;
23418;SDS011;11882;42.522;27.458;2022-09-09T13:23:48;2.93;;;2.10;;
23418;SDS011;11882;42.522;27.458;2022-09-09T13:26:21;5.13;;;2.30;;
23418;SDS011;11882;42.522;27.458;2022-09-09T13:28:49;4.10;;;2.40;;
23418;SDS011;11882;42.522;27.458;2022-09-09T13:31:21;6.90;;;3.10;;
23418;SDS011;11882;42.522;27.458;2022-09-09T13:33:49;3.10;;;2.40;;
23418;SDS011;11882;42.522;27.458;2022-09-09T13:36:26;4.30;;;2.70;;
23418;SDS011;11882;42.522;27.458;2022-09-09T13:38:56;5.67;;;2.50;;
23418;SDS011;11882;42.522;27.458;2022-09-09T13:41:27;5.30;;;2.70;;
23418;SDS011;11882;42.522;27.458;2022-09-09T13:43:57;4.43;;;2.40;;
23418;SDS011;11882;42.522;27.458;2022-09-09T13:46:26;5.63;;;2.60;;
23418;SDS011;11882;42.522;27.458;2022-09-09T13:48:57;7.77;;;2.97;;
23418;SDS011;11882;42.522;27.458;2022-09-09T13:51:30;4.70;;;2.37;;
23418;SDS011;11882;42.522;27.458;2022-09-09T13:54:02;5.57;;;2.70;;
23418;SDS011;11882;42.522;27.458;2022-09-09T13:56:30;4.20;;;2.70;;
23418;SDS011;11882;42.522;27.458;2022-09-09T13:58:57;5.37;;;2.30;;
23418;SDS011;11882;42.522;27.458;2022-09-09T14:01:24;6.60;;;2.30;;
23418;SDS011;11882;42.522;27.458;2022-09-09T14:03:52;3.70;;;2.27;;
23418;SDS011;11882;42.522;27.458;2022-09-09T14:06:19;6.97;;;2.50;;
23418;SDS011;11882;42.522;27.458;2022-09-09T14:08:49;3.77;;;2.57;;
23418;SDS011;11882;42.522;27.458;2022-09-09T14:11:17;11.13;;;8.47;;
23418;SDS011;11882;42.522;27.458;2022-09-09T14:13:44;4.60;;;2.60;;
23418;SDS011;11882;42.522;27.458;2022-09-09T14:16:11;5.10;;;2.30;;
23418;SDS011;11882;42.522;27.458;2022-09-09T14:18:38;5.63;;;2.63;;
23418;SDS011;11882;42.522;27.458;2022-09-09T14:21:05;5.30;;;2.60;;
23418;SDS011;11882;42.522;27.458;2022-09-09T14:23:33;4.37;;;2.23;;
23418;SDS011;11882;42.522;27.458;2022-09-09T14:26:01;5.57;;;2.70;;
23418;SDS011;11882;42.522;27.458;2022-09-09T14:28:28;5.53;;;2.43;;
23418;SDS011;11882;42.522;27.458;2022-09-09T14:30:58;4.30;;;2.27;;
23418;SDS011;11882;42.522;27.458;2022-09-09T14:33:26;5.17;;;2.60;;
23418;SDS011;11882;42.522;27.458;2022-09-09T14:35:55;4.50;;;2.30;;
23418;SDS011;11882;42.522;27.458;2022-09-09T14:38:23;6.87;;;2.67;;
23418;SDS011;11882;42.522;27.458;2022-09-09T14:40:50;3.90;;;2.30;;
23418;SDS011;11882;42.522;27.458;2022-09-09T14:43:19;6.37;;;2.70;;
23418;SDS011;11882;42.522;27.458;2022-09-09T14:45:46;3.90;;;2.40;;
23418;SDS011;11882;42.522;27.458;2022-09-09T14:48:15;3.90;;;2.67;;
23418;SDS011;11882;42.522;27.458;2022-09-09T14:50:42;5.07;;;2.57;;
23418;SDS011;11882;42.522;27.458;2022-09-09T14:53:09;7.37;;;2.70;;
23418;SDS011;11882;42.522;27.458;2022-09-09T14:55:36;8.83;;;2.80;;
23418;SDS011;11882;42.522;27.458;2022-09-09T14:58:04;5.70;;;2.33;;
23418;SDS011;11882;42.522;27.458;2022-09-09T15:00:32;4.70;;;2.37;;
23418;SDS011;11882;42.522;27.458;2022-09-09T15:02:59;7.27;;;2.43;;
23418;SDS011;11882;42.522;27.458;2022-09-09T15:05:26;5.57;;;2.17;;
23418;SDS011;11882;42.522;27.458;2022-09-09T15:07:53;3.67;;;2.23;;